Hovedside
METAR-TAF:

METAR-TAF

Lufthavner :

Arvidsjaur, Sverige

Arvidsjaur lufthavn

breddegrad: 65-35-25N, lengdegrad: 019-16-55E, høyde over havet: 379 m

Gjeldene værobservasjon

Denne rapporten ble laget for 23 minutter siden, klokken 05:50 UTC
Vind 4 kt fra Vest
Temperatur -10°C
Luftfuktighet 92%
Trykk 1014 hPa
Sikt 10 km eller mer

METAR: ESNX 240550Z AUTO 28004KT 9999 NCD M10/M11 Q1014

Tid: 07:13 (06:13 UTC)

Varsel

Denne rapporten ble laget for 43 minutter siden, klokken 05:30 UTC
Varsel gyldig fra 24. klokken 06 UTC til 24. klokken 15 UTC
Vind 10 kt fra Vest
Sikt 10 km eller mer
ingen skyer under 1500 m og ingen bygeskyer
Midlertidig
fra 24. klokken 10 UTC til 24. klokken 15 UTC
Vind 10 kt fra Sør
Sannsynlighet 40%
fra 24. klokken 14 UTC til 24. klokken 15 UTC
Sikt: 4000 m
i en høyde av 1400 ft
snø

TAF: ESNX 240530Z 2406/2415 28010KT CAVOK TEMPO 2410/2415 19010KT PROB40 2414/2415 4000 SN VV014

Værobservasjoner og værvarsel for over 4000 flyplasser (METAR- og TAF-rapporter).

Tilgjengelige stasjoner er representert av de røde og gule prikkene på kartet.

Hold musepekeren over prikken for å se navnet på stasjonen.

Klikk så for å se værobservasjoner og -varsler.

For å forandre kartet kan du klikke på den grønne knappen med svart kryss for å zoome inn, på den grønne knappen med strek for å zoome ut, eller på de grønne pilene for å se tilstøtende kart.


METAR-TAF: